Time;durP1;ratioP1;P1;durP2;ratioP2;P2;SDS_P1;SDS_P2;PMS_P1;PMS_P2;Temp;Humidity;BMP_temperature;BMP_pressure;BME280_temperature;BME280_humidity;BME280_pressure;Samples;Min_cycle;Max_cycle;Signal;HPM_P1;HPM_P2
2020/12/08 00:03:15;;;;;;;8.02;4.93;;;;;;;1.49;59.81;99742.34;8007405;28;20560;-62
2020/12/08 00:07:07;;;;;;;8.70;5.07;;;;;;;1.46;60.47;99737.31;7988139;28;20583;-61
2020/12/08 00:10:57;;;;;;;9.50;5.88;;;;;;;1.45;60.14;99739.06;8007740;28;20107;-62
2020/12/08 00:14:48;;;;;;;10.00;6.18;;;;;;;1.43;60.21;99737.44;8006050;28;20036;-61
2020/12/08 00:18:39;;;;;;;7.18;5.20;;;;;;;1.42;60.47;99736.59;8009286;28;20078;-62
2020/12/08 00:22:30;;;;;;;7.97;5.00;;;;;;;1.45;60.44;99733.06;8023705;28;20044;-62
2020/12/08 00:26:20;;;;;;;8.95;5.88;;;;;;;1.48;60.63;99726.00;8039896;28;20070;-62
2020/12/08 00:30:15;;;;;;;10.23;6.10;;;;;;;1.50;60.67;99718.16;8039559;28;20400;-62
2020/12/08 00:34:06;;;;;;;7.25;4.78;;;;;;;1.53;60.32;99717.16;8027672;28;20053;-62
2020/12/08 00:37:56;;;;;;;11.10;5.25;;;;;;;1.55;59.99;99723.94;8007572;28;20037;-63
2020/12/08 00:41:48;;;;;;;8.52;5.22;;;;;;;1.57;60.54;99727.31;8008053;28;20043;-63
2020/12/08 00:45:38;;;;;;;8.57;5.65;;;;;;;1.56;60.24;99719.59;8007019;28;20449;-63
2020/12/08 00:49:29;;;;;;;7.20;5.05;;;;;;;1.54;59.77;99721.44;8006079;28;20032;-62
2020/12/08 00:53:20;;;;;;;7.18;5.35;;;;;;;1.51;59.41;99725.00;8007199;28;20072;-63
2020/12/08 00:57:11;;;;;;;7.85;5.28;;;;;;;1.49;59.94;99724.25;8007073;28;20558;-62
2020/12/08 01:01:06;;;;;;;8.98;5.82;;;;;;;1.46;60.24;99722.63;7990679;28;20167;-62
2020/12/08 01:04:56;;;;;;;6.65;4.60;;;;;;;1.43;60.20;99712.41;7984590;28;20037;-63
2020/12/08 01:08:48;;;;;;;8.32;6.05;;;;;;;1.39;60.16;99715.22;7974323;28;20500;-62
2020/12/08 01:12:40;;;;;;;8.45;5.50;;;;;;;1.37;60.54;99715.31;7990952;28;20037;-62
2020/12/08 01:16:33;;;;;;;9.55;5.72;;;;;;;1.33;59.92;99718.09;8007151;28;20044;-63
2020/12/08 01:20:29;;;;;;;6.88;4.90;;;;;;;1.32;60.10;99719.00;8024009;28;20421;-62
2020/12/08 01:24:20;;;;;;;8.25;5.47;;;;;;;1.30;60.47;99718.22;8038084;28;20041;-62
2020/12/08 01:28:11;;;;;;;8.80;5.63;;;;;;;1.29;60.66;99732.94;8021565;28;20032;-63
2020/12/08 01:32:04;;;;;;;10.60;5.85;;;;;;;1.28;60.34;99733.84;8037535;28;20056;-62
2020/12/08 01:35:55;;;;;;;9.00;5.38;;;;;;;1.26;60.25;99732.22;7993679;28;20040;-62
2020/12/08 01:39:46;;;;;;;7.88;5.80;;;;;;;1.24;60.22;99734.03;8007126;28;20486;-61
2020/12/08 01:43:50;;;;;;;8.40;5.45;;;;;;;1.25;60.43;99733.94;8007139;28;20047;-62
2020/12/08 01:47:43;;;;;;;9.30;5.85;;;;;;;1.24;60.13;99745.22;8006348;28;20548;-62
2020/12/08 01:51:37;;;;;;;7.50;5.07;;;;;;;1.25;59.80;99733.94;7989419;28;20029;-62
2020/12/08 01:55:28;;;;;;;7.30;4.95;;;;;;;1.23;60.00;99738.38;8007252;28;20124;-61
2020/12/08 01:59:19;;;;;;;8.68;5.45;;;;;;;1.22;60.08;99739.28;7988215;28;20515;-62
2020/12/08 02:03:27;;;;;;;9.82;5.38;;;;;;;1.21;59.82;99736.78;7986722;28;20053;-62
2020/12/08 02:07:19;;;;;;;10.32;5.68;;;;;;;1.21;60.04;99729.81;7983122;28;20489;-62
2020/12/08 02:11:10;;;;;;;9.27;5.10;;;;;;;1.25;60.11;99731.38;7989208;28;20043;-62
2020/12/08 02:15:01;;;;;;;7.43;5.40;;;;;;;1.26;60.17;99733.06;8005520;28;20056;-62
2020/12/08 02:18:55;;;;;;;6.72;4.63;;;;;;;1.33;60.90;99744.81;7991987;28;20119;-61
2020/12/08 02:22:48;;;;;;;9.20;5.15;;;;;;;1.38;60.45;99739.41;8038245;28;20043;-61
2020/12/08 02:26:39;;;;;;;9.68;5.30;;;;;;;1.42;59.91;99738.34;8036717;28;20024;-62
2020/12/08 02:30:32;;;;;;;8.05;5.32;;;;;;;1.46;60.39;99737.31;8019688;28;20112;-61
2020/12/08 02:34:23;;;;;;;7.35;4.88;;;;;;;1.46;60.10;99729.53;8004775;28;20035;-62
2020/12/08 02:38:14;;;;;;;9.15;5.53;;;;;;;1.48;60.30;99730.31;7987512;28;20044;-61
2020/12/08 02:42:05;;;;;;;7.97;5.28;;;;;;;1.48;60.27;99731.16;7988553;28;20035;-61
2020/12/08 02:45:57;;;;;;;8.18;5.68;;;;;;;1.53;59.66;99730.09;8003657;28;20051;-62
2020/12/08 02:49:48;;;;;;;8.48;5.50;;;;;;;1.55;59.92;99733.44;8005147;28;20033;-62
2020/12/08 02:53:39;;;;;;;9.88;5.97;;;;;;;1.57;59.86;99740.25;8003849;28;20091;-62
2020/12/08 02:57:31;;;;;;;8.68;5.15;;;;;;;1.59;59.84;99743.59;8004328;28;20037;-62
2020/12/08 03:01:22;;;;;;;7.70;4.85;;;;;;;1.58;60.59;99738.50;7986815;28;20049;-62
2020/12/08 03:05:16;;;;;;;7.00;4.88;;;;;;;1.61;60.42;99739.19;7982596;28;20066;-62
2020/12/08 03:09:09;;;;;;;8.43;4.75;;;;;;;1.63;59.84;99749.47;8004073;28;20041;-61
2020/12/08 03:13:00;;;;;;;9.48;4.78;;;;;;;1.64;60.17;99753.72;8008933;28;20068;-62
2020/12/08 03:16:57;;;;;;;8.70;5.03;;;;;;;1.63;59.87;99752.03;7993327;28;20065;-61
2020/12/08 03:20:49;;;;;;;8.48;5.03;;;;;;;1.63;60.03;99752.03;8030084;28;20397;-62
2020/12/08 03:24:40;;;;;;;7.72;5.35;;;;;;;1.63;59.99;99749.47;8043649;28;20036;-62
2020/12/08 03:28:33;;;;;;;7.60;5.20;;;;;;;1.64;59.73;99739.03;8041228;28;20040;-62
2020/12/08 03:32:24;;;;;;;6.32;4.75;;;;;;;1.66;60.38;99746.75;8024188;28;20071;-61
2020/12/08 03:36:18;;;;;;;7.63;4.63;;;;;;;1.66;60.52;99745.00;7995064;28;20074;-61
2020/12/08 03:40:09;;;;;;;7.30;5.10;;;;;;;1.67;60.31;99746.66;8009644;28;20727;-59
2020/12/08 03:44:00;;;;;;;7.28;5.10;;;;;;;1.66;60.07;99744.16;7993393;28;20112;-62
2020/12/08 03:47:51;;;;;;;8.10;5.20;;;;;;;1.69;60.33;99756.94;8008637;28;20142;-62
2020/12/08 03:51:47;;;;;;;6.60;4.97;;;;;;;1.69;60.04;99744.84;7993571;28;20068;-62
2020/12/08 03:55:41;;;;;;;9.52;5.20;;;;;;;1.73;60.13;99748.97;7992778;28;20041;-62
2020/12/08 03:59:33;;;;;;;7.53;5.22;;;;;;;1.72;60.30;99743.84;8008748;28;20045;-62
2020/12/08 04:03:32;;;;;;;9.20;5.50;;;;;;;1.71;60.32;99737.84;8003894;28;20076;-62
2020/12/08 04:07:23;;;;;;;8.05;5.05;;;;;;;1.73;60.38;99741.19;8007257;28;20041;-62
2020/12/08 04:11:15;;;;;;;7.50;4.80;;;;;;;1.72;60.05;99742.09;8007566;28;20043;-62
2020/12/08 04:15:06;;;;;;;7.20;5.28;;;;;;;1.74;60.73;99745.47;7978913;28;20046;-62
2020/12/08 04:18:58;;;;;;;7.47;4.95;;;;;;;1.77;60.78;99749.66;7968930;28;20036;-61
2020/12/08 04:22:49;;;;;;;7.55;4.40;;;;;;;1.75;60.13;99751.50;8040408;28;20040;-62
2020/12/08 04:26:45;;;;;;;8.30;5.22;;;;;;;1.77;60.15;99754.84;8039804;28;20043;-62
2020/12/08 04:30:38;;;;;;;6.95;4.65;;;;;;;1.77;60.48;99747.06;8023730;28;20041;-62
2020/12/08 04:34:31;;;;;;;8.43;5.43;;;;;;;1.78;60.68;99753.94;8007795;28;20041;-62
2020/12/08 04:38:22;;;;;;;8.55;5.22;;;;;;;1.78;60.66;99752.19;8007890;28;20155;-62
2020/12/08 04:42:12;;;;;;;7.90;5.10;;;;;;;1.78;60.53;99747.00;8009438;28;20746;-62
2020/12/08 04:46:04;;;;;;;7.43;4.85;;;;;;;1.81;60.42;99751.19;8008476;28;20040;-62
2020/12/08 04:49:55;;;;;;;7.60;4.75;;;;;;;1.81;60.40;99754.63;7991692;28;20413;-62
2020/12/08 04:53:47;;;;;;;7.40;4.43;;;;;;;1.82;60.17;99753.72;8007971;28;20036;-62
2020/12/08 04:57:40;;;;;;;7.75;4.82;;;;;;;1.84;60.78;99754.47;8009373;28;20637;-62
2020/12/08 05:01:31;;;;;;;8.10;5.00;;;;;;;1.86;60.29;99754.41;8006708;28;20414;-62
2020/12/08 05:05:22;;;;;;;13.57;6.40;;;;;;;1.87;61.00;99758.69;8002819;28;20751;-61
2020/12/08 05:09:13;;;;;;;10.18;5.63;;;;;;;1.86;61.03;99760.44;7990486;28;20040;-63
2020/12/08 05:13:21;;;;;;;7.15;4.93;;;;;;;1.87;60.68;99759.50;8008208;28;20036;-61
2020/12/08 05:17:11;;;;;;;8.52;5.22;;;;;;;1.88;60.81;99758.59;8005608;28;20037;-63
2020/12/08 05:21:11;;;;;;;8.20;5.72;;;;;;;1.88;60.44;99760.34;8028552;28;20264;-63
2020/12/08 05:25:09;;;;;;;9.88;6.03;;;;;;;1.89;60.97;99767.19;8039643;28;20033;-63
2020/12/08 05:29:01;;;;;;;8.20;5.50;;;;;;;1.87;60.25;99759.50;8038307;28;20060;-62
2020/12/08 05:32:52;;;;;;;10.25;5.45;;;;;;;1.91;60.76;99767.97;8038027;28;20036;-62
2020/12/08 05:36:46;;;;;;;9.05;5.30;;;;;;;1.91;60.95;99757.63;7986810;28;20053;-62
2020/12/08 05:40:38;;;;;;;10.10;5.78;;;;;;;1.89;60.65;99768.03;7989448;28;20079;-63
2020/12/08 05:44:31;;;;;;;7.28;5.25;;;;;;;1.90;60.79;99774.91;8005721;28;20049;-62
2020/12/08 05:48:22;;;;;;;7.88;4.93;;;;;;;1.88;60.14;99778.47;8005227;28;20044;-62
2020/12/08 05:52:18;;;;;;;7.95;5.20;;;;;;;1.89;60.73;99778.41;8005857;28;20093;-62
2020/12/08 05:56:08;;;;;;;8.93;5.35;;;;;;;1.88;61.19;99775.88;8005805;28;20539;-62
2020/12/08 05:59:59;;;;;;;7.97;5.53;;;;;;;1.88;60.24;99776.72;8006828;28;20063;-62
2020/12/08 06:03:54;;;;;;;7.47;5.50;;;;;;;1.89;60.35;99782.75;7999246;28;20037;-62
2020/12/08 06:07:44;;;;;;;8.30;5.50;;;;;;;1.88;60.21;99786.22;8004799;28;20060;-62
2020/12/08 06:11:35;;;;;;;7.68;5.38;;;;;;;1.91;60.74;99786.13;8006458;28;20039;-62
2020/12/08 06:15:39;;;;;;;6.47;4.80;;;;;;;1.92;60.49;99786.03;8005921;28;20071;-62
2020/12/08 06:19:31;;;;;;;11.15;5.72;;;;;;;1.94;60.49;99784.22;7995456;28;20068;-62
2020/12/08 06:23:22;;;;;;;7.68;5.13;;;;;;;1.96;60.52;99789.28;8003853;28;20048;-62
2020/12/08 06:27:17;;;;;;;7.93;5.55;;;;;;;1.97;60.69;99790.97;7987708;28;20144;-62
2020/12/08 06:31:08;;;;;;;7.70;5.55;;;;;;;2.01;60.81;99792.50;8004526;28;20533;-62
2020/12/08 06:35:12;;;;;;;8.00;5.47;;;;;;;2.03;60.63;99803.66;8003326;28;20112;-62
2020/12/08 06:39:07;;;;;;;11.15;5.15;;;;;;;2.06;60.48;99802.66;8004473;28;20126;-61
2020/12/08 06:42:58;;;;;;;8.50;5.72;;;;;;;2.10;61.14;99809.38;8004963;28;20029;-61
2020/12/08 06:46:57;;;;;;;10.68;6.97;;;;;;;2.11;61.32;99801.53;8001009;28;20041;-62
2020/12/08 06:50:48;;;;;;;10.25;6.43;;;;;;;2.12;61.35;99810.16;7900379;28;20662;-61
2020/12/08 06:54:39;;;;;;;11.52;7.00;;;;;;;2.11;61.32;99808.47;7980876;28;20037;-62
2020/12/08 06:58:29;;;;;;;9.52;6.63;;;;;;;2.15;61.06;99808.25;7973710;28;20048;-62
2020/12/08 07:02:20;;;;;;;12.68;7.47;;;;;;;2.18;61.38;99815.88;7971929;28;20050;-62
2020/12/08 07:06:10;;;;;;;13.20;7.45;;;;;;;2.21;61.66;99822.66;7999539;28;20039;-62
2020/12/08 07:10:01;;;;;;;8.27;6.07;;;;;;;2.23;61.40;99823.44;8003806;28;20049;-62
2020/12/08 07:14:04;;;;;;;12.00;7.22;;;;;;;2.26;61.71;99820.69;7987266;28;20127;-62
2020/12/08 07:18:02;;;;;;;8.95;6.60;;;;;;;2.28;61.21;99824.91;7954775;28;20571;-62
2020/12/08 07:22:00;;;;;;;10.30;6.82;;;;;;;2.30;61.11;99833.41;8028138;28;20043;-60
2020/12/08 07:25:50;;;;;;;;;;;;;;;2.28;61.97;99839.59;8019609;28;20037;-62
2020/12/08 07:29:41;;;;;;;9.18;6.57;;;;;;;2.29;61.58;99841.25;8002626;28;20441;-62
2020/12/08 07:33:31;;;;;;;9.93;6.50;;;;;;;2.36;61.01;99847.84;7999257;28;20037;-62
2020/12/08 07:37:22;;;;;;;8.80;6.00;;;;;;;2.35;61.31;99841.81;8003354;28;20040;-62
2020/12/08 07:41:20;;;;;;;9.48;6.03;;;;;;;2.41;61.94;99849.28;8002906;28;20487;-62
2020/12/08 07:45:11;;;;;;;8.38;5.82;;;;;;;2.41;61.71;99846.69;7985760;28;20112;-62
2020/12/08 07:49:07;;;;;;;10.10;6.00;;;;;;;2.48;61.32;99859.38;8001484;28;20490;-62
2020/12/08 07:53:02;;;;;;;8.57;5.80;;;;;;;2.50;61.68;99866.13;7969573;28;20551;-62
2020/12/08 07:56:52;;;;;;;7.35;5.55;;;;;;;2.51;61.67;99865.22;8004062;28;20040;-61
2020/12/08 08:00:43;;;;;;;9.60;6.18;;;;;;;2.54;61.28;99864.22;8007100;28;20049;-62
2020/12/08 08:04:33;;;;;;;10.75;6.00;;;;;;;2.56;61.40;99865.00;8007373;28;20516;-62
2020/12/08 08:08:24;;;;;;;7.43;5.25;;;;;;;2.56;60.90;99870.19;8006580;28;20029;-62
2020/12/08 08:12:15;;;;;;;7.78;5.45;;;;;;;2.57;60.86;99871.88;8005434;28;20048;-63
2020/12/08 08:16:13;;;;;;;8.82;5.28;;;;;;;2.58;61.60;99876.97;7991402;28;20067;-62
2020/12/08 08:20:04;;;;;;;7.32;5.10;;;;;;;2.60;61.31;99874.31;8008558;28;20033;-62
2020/12/08 08:23:58;;;;;;;7.10;5.30;;;;;;;2.63;61.01;99879.34;8009558;28;20094;-63
2020/12/08 08:27:48;;;;;;;6.75;4.75;;;;;;;2.62;61.06;99873.31;7998611;28;20518;-62
2020/12/08 08:31:39;;;;;;;6.20;4.43;;;;;;;2.63;60.80;99880.19;7995620;28;20055;-61
2020/12/08 08:35:30;;;;;;;6.90;5.05;;;;;;;2.64;61.32;99879.28;7995388;28;20033;-63
2020/12/08 08:39:21;;;;;;;7.47;5.35;;;;;;;2.65;60.76;99878.38;7995343;28;20029;-62
2020/12/08 08:43:11;;;;;;;8.63;5.32;;;;;;;2.67;61.10;99878.28;7995774;28;20025;-63
2020/12/08 08:47:03;;;;;;;7.35;4.85;;;;;;;2.69;61.19;99881.66;7994245;28;20568;-63
2020/12/08 08:50:54;;;;;;;6.22;4.60;;;;;;;2.72;60.56;99884.09;7993699;28;20033;-63
2020/12/08 08:54:45;;;;;;;6.65;4.95;;;;;;;2.71;60.99;99878.06;7993992;28;20119;-63
2020/12/08 08:58:35;;;;;;;6.35;4.60;;;;;;;2.76;60.77;99883.03;7978581;28;20094;-63
2020/12/08 09:02:26;;;;;;;6.35;4.80;;;;;;;2.78;60.92;99886.41;7995860;28;20048;-60
2020/12/08 09:06:16;;;;;;;7.38;5.00;;;;;;;2.80;60.73;99887.13;7995246;28;20044;-63
2020/12/08 09:10:07;;;;;;;8.27;5.70;;;;;;;2.82;60.68;99888.75;7994471;28;20477;-62
2020/12/08 09:13:58;;;;;;;6.20;5.07;;;;;;;2.86;60.47;99892.88;7994879;28;20041;-62
2020/12/08 09:17:48;;;;;;;8.57;5.88;;;;;;;2.89;60.53;99892.72;7996080;28;20041;-63
2020/12/08 09:21:39;;;;;;;9.23;5.85;;;;;;;2.91;61.14;99895.22;7995013;28;20037;-63
2020/12/08 09:25:30;;;;;;;8.05;5.65;;;;;;;2.91;60.69;99897.00;7996658;28;20488;-63
2020/12/08 09:29:20;;;;;;;8.38;6.40;;;;;;;2.93;60.42;99900.34;7995292;28;20048;-63
2020/12/08 09:33:11;;;;;;;7.65;5.82;;;;;;;2.98;60.70;99900.97;7994687;28;20041;-63
2020/12/08 09:37:02;;;;;;;9.88;6.43;;;;;;;3.02;60.93;99905.91;7993412;28;20043;-62
2020/12/08 09:40:53;;;;;;;8.20;5.32;;;;;;;3.05;60.55;99904.91;7994767;28;20110;-63
2020/12/08 09:44:45;;;;;;;7.53;5.68;;;;;;;3.12;60.68;99906.28;7976358;28;20063;-62
2020/12/08 09:48:36;;;;;;;8.60;5.97;;;;;;;3.17;60.98;99910.31;7992693;28;20143;-64
2020/12/08 09:52:30;;;;;;;9.35;5.97;;;;;;;3.26;61.03;99906.44;7977013;28;20099;-63
2020/12/08 09:56:21;;;;;;;8.50;6.18;;;;;;;3.33;61.01;99910.41;7993400;28;20090;-63
2020/12/08 10:00:11;;;;;;;9.00;6.40;;;;;;;3.39;60.99;99915.31;7993094;28;20127;-63
2020/12/08 10:04:02;;;;;;;9.07;6.32;;;;;;;3.40;60.74;99904.00;7995965;28;20032;-63
2020/12/08 10:07:53;;;;;;;9.52;6.38;;;;;;;3.48;61.28;99911.41;7994445;28;20677;-62
2020/12/08 10:11:43;;;;;;;7.65;5.80;;;;;;;3.53;61.10;99907.63;7994904;28;20077;-63
2020/12/08 10:15:34;;;;;;;7.43;5.53;;;;;;;3.62;60.95;99911.50;7992432;28;20486;-62
2020/12/08 10:19:25;;;;;;;7.40;5.05;;;;;;;3.66;61.12;99908.66;7994575;28;20037;-64
2020/12/08 10:23:16;;;;;;;7.68;5.38;;;;;;;3.73;60.91;99911.78;7994693;28;20041;-64
2020/12/08 10:27:06;;;;;;;8.50;5.85;;;;;;;3.78;60.53;99910.63;7992105;28;20058;-63
2020/12/08 10:30:57;;;;;;;8.55;5.55;;;;;;;3.85;60.89;99902.50;7993106;28;20128;-62
2020/12/08 10:34:48;;;;;;;8.60;5.40;;;;;;;3.90;61.29;99903.94;7994824;28;20512;-63
2020/12/08 10:38:38;;;;;;;9.38;5.60;;;;;;;3.96;60.95;99906.19;7993624;28;20049;-63
2020/12/08 10:42:29;;;;;;;8.80;5.90;;;;;;;4.01;60.60;99912.00;7995907;28;20036;-62
2020/12/08 10:46:20;;;;;;;8.93;5.68;;;;;;;4.06;60.39;99912.59;7993612;28;20045;-62
2020/12/08 10:50:11;;;;;;;7.88;5.38;;;;;;;4.11;60.73;99912.34;7993610;28;20039;-63
2020/12/08 10:54:02;;;;;;;11.35;7.00;;;;;;;4.15;60.48;99903.47;7994655;28;20064;-60
2020/12/08 10:57:52;;;;;;;9.70;6.38;;;;;;;4.18;60.43;99901.53;7992743;28;20043;-63
2020/12/08 11:01:43;;;;;;;11.35;6.07;;;;;;;4.20;60.38;99904.03;7991228;28;20053;-63
2020/12/08 11:05:34;;;;;;;8.73;5.93;;;;;;;4.19;60.17;99891.97;7994124;28;20029;-63
2020/12/08 11:09:24;;;;;;;11.43;6.75;;;;;;;4.18;60.10;99885.09;7991575;28;20039;-64
2020/12/08 11:13:15;;;;;;;8.38;6.35;;;;;;;4.16;60.26;99884.31;7993928;28;20044;-63
2020/12/08 11:17:06;;;;;;;9.98;5.80;;;;;;;4.13;60.08;99895.72;7974572;28;20037;-64
2020/12/08 11:20:56;;;;;;;8.05;5.68;;;;;;;4.10;60.06;99882.91;7992779;28;20037;-63
2020/12/08 11:24:47;;;;;;;8.02;6.22;;;;;;;4.05;60.26;99879.72;7991695;28;20071;-63
2020/12/08 11:28:38;;;;;;;8.50;5.90;;;;;;;4.02;59.91;99879.06;7993786;28;20401;-62
2020/12/08 11:32:29;;;;;;;8.85;6.03;;;;;;;4.01;59.93;99885.16;7995706;28;20057;-61
2020/12/08 11:36:19;;;;;;;7.78;4.90;;;;;;;3.99;59.57;99882.63;7997570;28;20025;-62
2020/12/08 11:40:10;;;;;;;8.35;5.47;;;;;;;3.95;59.88;99877.69;7998644;28;20047;-63
2020/12/08 11:44:01;;;;;;;7.72;5.53;;;;;;;4.02;59.81;99887.69;7996656;28;20043;-60
2020/12/08 11:47:51;;;;;;;10.15;5.97;;;;;;;4.05;59.79;99884.91;7997140;28;20132;-62
2020/12/08 11:51:42;;;;;;;8.80;6.15;;;;;;;4.07;59.70;99887.44;8000146;28;20047;-62
2020/12/08 11:55:33;;;;;;;9.18;5.93;;;;;;;4.10;59.66;99893.31;7996979;28;20047;-62
2020/12/08 11:59:23;;;;;;;9.80;5.80;;;;;;;4.12;59.78;99885.41;7996127;28;20033;-62
2020/12/08 12:03:15;;;;;;;8.82;6.57;;;;;;;4.15;59.75;99882.66;7996047;28;20041;-62
2020/12/08 12:07:05;;;;;;;8.70;6.22;;;;;;;4.13;59.87;99885.34;7995691;28;20037;-62
2020/12/08 12:10:57;;;;;;;8.82;6.30;;;;;;;4.18;59.88;99890.28;7998678;28;20123;-62
2020/12/08 12:14:48;;;;;;;9.02;5.95;;;;;;;4.20;59.82;99896.22;7997900;28;20047;-61
2020/12/08 12:18:39;;;;;;;7.60;5.30;;;;;;;4.22;59.68;99889.19;7994609;28;20049;-62
2020/12/08 12:22:30;;;;;;;7.38;5.13;;;;;;;4.27;59.86;99892.38;7997739;28;20040;-62
2020/12/08 12:26:20;;;;;;;6.10;4.88;;;;;;;4.28;59.70;99892.28;7995842;28;20025;-62
2020/12/08 12:30:11;;;;;;;6.47;4.75;;;;;;;4.31;59.52;99886.09;7995181;28;20704;-62
2020/12/08 12:34:01;;;;;;;6.90;4.80;;;;;;;4.32;59.81;99881.72;7998120;28;20510;-62
2020/12/08 12:37:52;;;;;;;6.38;4.57;;;;;;;4.35;59.53;99884.16;7995648;28;20044;-62
2020/12/08 12:41:43;;;;;;;6.65;4.32;;;;;;;4.36;59.46;99875.44;7997281;28;20045;-63
2020/12/08 12:45:34;;;;;;;7.80;5.35;;;;;;;4.35;59.57;99879.78;7995708;28;20047;-62
2020/12/08 12:49:24;;;;;;;6.60;4.70;;;;;;;4.38;59.38;99876.16;7993840;28;20181;-63
2020/12/08 12:53:15;;;;;;;7.32;4.95;;;;;;;4.39;59.45;99873.50;7993739;28;20041;-62
2020/12/08 12:57:05;;;;;;;7.88;5.22;;;;;;;4.40;59.49;99875.16;7993360;28;20040;-62
2020/12/08 13:00:56;;;;;;;6.40;4.40;;;;;;;4.41;59.25;99876.84;7993088;28;21366;-62
2020/12/08 13:04:47;;;;;;;9.15;5.72;;;;;;;4.44;59.31;99883.66;7977138;28;20051;-62
2020/12/08 13:08:38;;;;;;;8.85;5.28;;;;;;;4.46;59.42;99879.19;7977001;28;20036;-63
2020/12/08 13:12:28;;;;;;;7.32;4.93;;;;;;;4.39;59.24;99870.91;7995165;28;20410;-62
2020/12/08 13:16:19;;;;;;;8.88;4.55;;;;;;;4.51;59.33;99879.75;8001614;28;20037;-62
2020/12/08 13:20:09;;;;;;;7.45;4.05;;;;;;;4.54;59.55;99883.03;7976760;28;20045;-61
2020/12/08 13:24:00;;;;;;;8.45;5.00;;;;;;;4.57;59.17;99879.41;8012143;28;20040;-62
2020/12/08 13:27:51;;;;;;;8.13;5.03;;;;;;;4.57;59.42;99880.25;7993609;28;20085;-62
2020/12/08 13:31:41;;;;;;;6.03;4.07;;;;;;;4.60;59.23;99881.84;7995577;28;20053;-62
2020/12/08 13:35:32;;;;;;;7.28;4.70;;;;;;;4.60;59.14;99884.44;7995468;28;20089;-62
2020/12/08 13:39:22;;;;;;;6.45;4.43;;;;;;;4.60;58.85;99877.50;7993992;28;20086;-62
2020/12/08 13:43:13;;;;;;;5.50;4.28;;;;;;;4.59;58.80;99886.22;7994638;28;20037;-63
2020/12/08 13:47:04;;;;;;;5.93;4.43;;;;;;;4.59;58.83;99895.78;7992579;28;20029;-62
2020/12/08 13:50:54;;;;;;;6.10;4.20;;;;;;;4.60;58.80;99895.69;7978038;28;20045;-61
2020/12/08 13:54:45;;;;;;;5.35;4.10;;;;;;;4.60;58.85;99894.84;7992914;28;20041;-62
2020/12/08 13:58:35;;;;;;;5.18;3.55;;;;;;;4.62;58.96;99904.22;7975808;28;20033;-62
2020/12/08 14:02:26;;;;;;;8.23;4.32;;;;;;;4.62;58.84;99895.59;7991321;28;20037;-62
2020/12/08 14:06:19;;;;;;;6.82;4.65;;;;;;;4.61;58.95;99899.09;7991886;28;20060;-63
2020/12/08 14:10:12;;;;;;;5.28;3.85;;;;;;;4.60;58.67;99907.88;7997206;28;20028;-63
2020/12/08 14:14:03;;;;;;;7.43;3.95;;;;;;;4.57;58.89;99914.06;7994694;28;20045;-63
2020/12/08 14:17:54;;;;;;;4.85;3.58;;;;;;;4.56;58.78;99919.38;7976962;28;20037;-62
2020/12/08 14:21:45;;;;;;;6.13;3.95;;;;;;;4.56;58.75;99922.81;7978024;28;20516;-63
2020/12/08 14:25:35;;;;;;;4.90;3.83;;;;;;;4.54;58.84;99922.03;7994288;28;20029;-62
2020/12/08 14:29:26;;;;;;;5.80;4.03;;;;;;;4.55;58.68;99923.72;7992553;28;20096;-62
2020/12/08 14:33:16;;;;;;;4.40;3.50;;;;;;;4.56;58.63;99937.56;7992671;28;20033;-63
2020/12/08 14:37:07;;;;;;;4.55;3.55;;;;;;;4.55;58.65;99934.13;7992775;28;20043;-63
2020/12/08 14:40:58;;;;;;;5.22;3.75;;;;;;;4.55;58.60;99943.69;7999574;28;20037;-62
2020/12/08 14:44:48;;;;;;;6.03;3.35;;;;;;;4.53;58.58;99938.56;7992621;28;20047;-62
2020/12/08 14:48:39;;;;;;;5.53;3.67;;;;;;;4.52;58.73;99947.31;7992098;28;20051;-62
2020/12/08 14:52:30;;;;;;;5.00;3.50;;;;;;;4.53;58.59;99948.13;7994772;28;20037;-62
2020/12/08 14:56:22;;;;;;;4.82;3.55;;;;;;;4.54;58.67;99962.81;7977263;28;20075;-63
2020/12/08 15:00:13;;;;;;;5.25;3.78;;;;;;;4.53;58.50;99959.38;8010133;28;20039;-62
2020/12/08 15:04:03;;;;;;;4.78;3.60;;;;;;;4.53;58.63;99958.53;7992631;28;20398;-62
2020/12/08 15:07:55;;;;;;;5.32;3.80;;;;;;;4.53;59.03;99961.97;7997389;28;20040;-62
2020/12/08 15:11:47;;;;;;;5.07;3.50;;;;;;;4.53;58.89;99968.94;7999156;28;20044;-63
2020/12/08 15:15:38;;;;;;;5.20;3.58;;;;;;;4.52;58.30;99970.72;7999194;28;20040;-63
2020/12/08 15:19:28;;;;;;;6.45;3.95;;;;;;;4.52;58.73;99967.28;7998566;28;20056;-62
2020/12/08 15:23:19;;;;;;;4.95;3.63;;;;;;;4.49;58.99;99963.06;7983061;28;20036;-62
2020/12/08 15:27:10;;;;;;;4.45;3.63;;;;;;;4.50;58.87;99967.34;7998745;28;20040;-62
2020/12/08 15:31:01;;;;;;;8.43;5.38;;;;;;;4.50;58.78;99975.16;7981171;28;20037;-62
2020/12/08 15:34:51;;;;;;;6.43;4.45;;;;;;;4.47;59.00;99974.50;7998032;28;20033;-63
2020/12/08 15:38:42;;;;;;;5.70;4.07;;;;;;;4.47;58.93;99984.88;7997825;28;20119;-62
2020/12/08 15:42:33;;;;;;;5.05;4.00;;;;;;;4.45;59.07;99984.97;8002225;28;20024;-62
2020/12/08 15:46:24;;;;;;;7.95;4.45;;;;;;;4.48;58.81;99999.59;7996808;28;20125;-63
2020/12/08 15:50:21;;;;;;;5.78;4.25;;;;;;;4.47;58.82;100005.69;7980808;28;20037;-62
2020/12/08 15:54:11;;;;;;;5.57;4.30;;;;;;;4.45;58.96;100000.56;8000039;28;20589;-62
2020/12/08 15:58:05;;;;;;;8.40;4.70;;;;;;;4.45;58.83;100013.56;8019477;28;20524;-63
2020/12/08 16:01:56;;;;;;;6.00;4.05;;;;;;;4.43;58.93;100017.19;7996693;28;20053;-62
2020/12/08 16:05:46;;;;;;;7.45;4.32;;;;;;;4.40;59.00;100023.38;7998381;28;20059;-62
2020/12/08 16:09:37;;;;;;;7.20;5.30;;;;;;;4.40;58.92;100033.78;7996646;28;20409;-62
2020/12/08 16:13:28;;;;;;;7.85;4.22;;;;;;;4.40;59.05;100041.56;7996096;28;20037;-63
2020/12/08 16:17:19;;;;;;;6.57;4.68;;;;;;;4.40;58.82;100051.16;7997275;28;20053;-62
2020/12/08 16:21:10;;;;;;;5.38;4.03;;;;;;;4.39;58.97;100060.72;7996750;28;20539;-62
2020/12/08 16:25:02;;;;;;;5.78;4.20;;;;;;;4.39;59.04;100057.28;7998518;28;20501;-62
2020/12/08 16:28:54;;;;;;;5.78;4.15;;;;;;;4.37;59.11;100052.16;7994893;28;20051;-62
2020/12/08 16:32:44;;;;;;;7.68;4.50;;;;;;;4.37;58.93;100051.31;7994970;28;20047;-62
2020/12/08 16:36:39;;;;;;;7.50;5.03;;;;;;;4.36;59.20;100060.06;7996662;28;20033;-62
2020/12/08 16:40:31;;;;;;;10.82;6.78;;;;;;;4.37;59.41;100067.75;7996041;28;20043;-62
2020/12/08 16:44:22;;;;;;;11.38;6.57;;;;;;;4.37;59.35;100072.13;8015825;28;20508;-62
2020/12/08 16:48:13;;;;;;;11.77;6.65;;;;;;;4.35;59.25;100063.56;7996095;28;20045;-62
2020/12/08 16:52:08;;;;;;;12.15;8.00;;;;;;;4.35;59.34;100076.56;7996834;28;21890;-62
2020/12/08 16:55:58;;;;;;;15.40;9.05;;;;;;;4.35;59.53;100073.97;7997730;28;20076;-62
2020/12/08 16:59:49;;;;;;;14.93;8.23;;;;;;;4.34;59.24;100077.47;7993845;28;20051;-62
2020/12/08 17:03:40;;;;;;;13.13;7.90;;;;;;;4.35;59.35;100090.41;7995209;28;20057;-62
2020/12/08 17:07:31;;;;;;;11.60;6.90;;;;;;;4.34;59.60;100093.09;7997409;28;20044;-62
2020/12/08 17:11:21;;;;;;;9.93;6.18;;;;;;;4.35;59.43;100094.78;7998401;28;21189;-62
2020/12/08 17:15:12;;;;;;;11.43;7.57;;;;;;;4.34;59.21;100101.72;7998392;28;20036;-63
2020/12/08 17:19:05;;;;;;;10.15;6.70;;;;;;;4.34;59.24;100099.13;7999366;28;20029;-60
2020/12/08 17:22:59;;;;;;;9.52;6.32;;;;;;;4.35;59.51;100113.81;7999478;28;20068;-62
2020/12/08 17:26:50;;;;;;;8.45;5.75;;;;;;;4.35;59.60;100115.56;7998483;28;20065;-61
2020/12/08 17:30:41;;;;;;;12.25;6.90;;;;;;;4.33;59.57;100120.84;7994776;28;20537;-61
2020/12/08 17:34:32;;;;;;;13.25;6.82;;;;;;;4.33;59.23;100126.03;7998991;28;20047;-62
2020/12/08 17:38:23;;;;;;;9.32;5.38;;;;;;;4.33;59.51;100123.44;7998132;28;20029;-62
2020/12/08 17:42:14;;;;;;;5.63;3.92;;;;;;;4.32;59.60;100136.53;7982050;28;20045;-62
2020/12/08 17:46:05;;;;;;;5.03;3.67;;;;;;;4.31;59.44;100135.69;7997177;28;20394;-65
2020/12/08 17:49:55;;;;;;;5.65;3.72;;;;;;;4.31;59.45;100134.84;7998060;28;20482;-62
2020/12/08 17:53:46;;;;;;;5.43;3.53;;;;;;;4.27;59.35;100145.41;7998003;28;20136;-66
2020/12/08 17:57:39;;;;;;;7.57;4.65;;;;;;;4.29;59.37;100147.91;7981003;28;20043;-66
2020/12/08 18:01:35;;;;;;;6.63;4.55;;;;;;;4.28;59.45;100141.03;7991828;28;20080;-66
2020/12/08 18:05:26;;;;;;;7.57;4.10;;;;;;;4.26;59.39;100141.13;7996429;28;20124;-66
2020/12/08 18:09:16;;;;;;;5.80;4.05;;;;;;;4.26;59.05;100137.69;7995920;28;20429;-65
2020/12/08 18:13:07;;;;;;;6.32;4.03;;;;;;;4.25;59.65;100141.19;7998223;28;20041;-65
2020/12/08 18:17:01;;;;;;;8.00;5.07;;;;;;;4.23;59.73;100135.25;7993959;28;20494;-62
2020/12/08 18:20:52;;;;;;;7.25;4.97;;;;;;;4.24;59.53;100131.72;7995435;28;20558;-67